sensor_id;sensor_type;location;lat;lon;timestamp;temperature;humidity
7496;DHT22;3789;47.064;15.482;2024-02-23T00:02:19;8.70;99.90
7496;DHT22;3789;47.064;15.482;2024-02-23T00:04:47;8.70;99.90
7496;DHT22;3789;47.064;15.482;2024-02-23T00:07:16;8.70;99.90
7496;DHT22;3789;47.064;15.482;2024-02-23T00:09:51;8.80;99.90
7496;DHT22;3789;47.064;15.482;2024-02-23T00:12:20;8.80;99.90
7496;DHT22;3789;47.064;15.482;2024-02-23T00:14:58;8.80;99.90
7496;DHT22;3789;47.064;15.482;2024-02-23T00:17:27;8.70;99.90
7496;DHT22;3789;47.064;15.482;2024-02-23T00:19:57;8.60;99.90
7496;DHT22;3789;47.064;15.482;2024-02-23T00:22:33;8.60;99.90
7496;DHT22;3789;47.064;15.482;2024-02-23T00:25:00;8.50;99.90
7496;DHT22;3789;47.064;15.482;2024-02-23T00:27:29;8.50;99.90
7496;DHT22;3789;47.064;15.482;2024-02-23T00:29:58;8.50;99.90
7496;DHT22;3789;47.064;15.482;2024-02-23T00:32:25;8.60;99.90
7496;DHT22;3789;47.064;15.482;2024-02-23T00:34:52;8.70;99.90
7496;DHT22;3789;47.064;15.482;2024-02-23T00:37:21;8.70;99.90
7496;DHT22;3789;47.064;15.482;2024-02-23T00:39:49;8.60;99.90
7496;DHT22;3789;47.064;15.482;2024-02-23T00:42:20;8.60;99.90
7496;DHT22;3789;47.064;15.482;2024-02-23T00:44:47;8.50;99.90
7496;DHT22;3789;47.064;15.482;2024-02-23T00:47:17;8.50;99.90
7496;DHT22;3789;47.064;15.482;2024-02-23T00:49:46;8.60;99.90
7496;DHT22;3789;47.064;15.482;2024-02-23T00:52:15;8.50;99.90
7496;DHT22;3789;47.064;15.482;2024-02-23T00:54:45;8.50;99.90
7496;DHT22;3789;47.064;15.482;2024-02-23T00:57:21;8.50;99.90
7496;DHT22;3789;47.064;15.482;2024-02-23T01:00:01;8.50;99.90
7496;DHT22;3789;47.064;15.482;2024-02-23T01:02:40;8.60;99.90
7496;DHT22;3789;47.064;15.482;2024-02-23T01:09:14;8.50;99.90
7496;DHT22;3789;47.064;15.482;2024-02-23T01:11:48;8.50;99.90
7496;DHT22;3789;47.064;15.482;2024-02-23T01:14:16;8.40;99.90
7496;DHT22;3789;47.064;15.482;2024-02-23T01:16:44;8.40;99.90
7496;DHT22;3789;47.064;15.482;2024-02-23T01:19:16;8.40;99.90
7496;DHT22;3789;47.064;15.482;2024-02-23T01:21:52;8.40;99.90
7496;DHT22;3789;47.064;15.482;2024-02-23T01:24:29;8.40;99.90
7496;DHT22;3789;47.064;15.482;2024-02-23T01:26:57;8.40;99.90
7496;DHT22;3789;47.064;15.482;2024-02-23T01:29:26;8.40;99.90
7496;DHT22;3789;47.064;15.482;2024-02-23T01:31:55;8.40;99.90
7496;DHT22;3789;47.064;15.482;2024-02-23T01:34:24;8.40;99.90
7496;DHT22;3789;47.064;15.482;2024-02-23T01:36:53;8.30;99.90
7496;DHT22;3789;47.064;15.482;2024-02-23T01:39:25;8.30;99.90
7496;DHT22;3789;47.064;15.482;2024-02-23T01:41:53;8.20;99.90
7496;DHT22;3789;47.064;15.482;2024-02-23T01:44:23;8.30;99.90
7496;DHT22;3789;47.064;15.482;2024-02-23T01:46:55;8.20;99.90
7496;DHT22;3789;47.064;15.482;2024-02-23T01:49:26;8.20;99.90
7496;DHT22;3789;47.064;15.482;2024-02-23T01:52:03;8.20;99.90
7496;DHT22;3789;47.064;15.482;2024-02-23T01:54:32;8.30;99.90
7496;DHT22;3789;47.064;15.482;2024-02-23T01:57:09;8.20;99.90
7496;DHT22;3789;47.064;15.482;2024-02-23T01:59:59;8.10;99.90
7496;DHT22;3789;47.064;15.482;2024-02-23T02:02:29;8.10;99.90
7496;DHT22;3789;47.064;15.482;2024-02-23T02:04:58;8.20;99.90
7496;DHT22;3789;47.064;15.482;2024-02-23T02:07:30;8.20;99.90
7496;DHT22;3789;47.064;15.482;2024-02-23T02:10:00;8.20;99.90
7496;DHT22;3789;47.064;15.482;2024-02-23T02:12:29;8.20;99.90
7496;DHT22;3789;47.064;15.482;2024-02-23T02:14:56;8.10;99.90
7496;DHT22;3789;47.064;15.482;2024-02-23T02:17:24;8.00;99.90
7496;DHT22;3789;47.064;15.482;2024-02-23T02:19:52;8.00;99.90
7496;DHT22;3789;47.064;15.482;2024-02-23T02:22:24;7.90;99.90
7496;DHT22;3789;47.064;15.482;2024-02-23T02:24:52;7.90;99.90
7496;DHT22;3789;47.064;15.482;2024-02-23T02:27:23;7.90;99.90
7496;DHT22;3789;47.064;15.482;2024-02-23T02:29:53;7.80;99.90
7496;DHT22;3789;47.064;15.482;2024-02-23T02:32:22;7.80;99.90
7496;DHT22;3789;47.064;15.482;2024-02-23T02:35:03;7.90;99.90
7496;DHT22;3789;47.064;15.482;2024-02-23T02:37:34;7.90;99.90
7496;DHT22;3789;47.064;15.482;2024-02-23T02:40:05;7.90;99.90
7496;DHT22;3789;47.064;15.482;2024-02-23T02:42:33;7.80;99.90
7496;DHT22;3789;47.064;15.482;2024-02-23T02:45:09;7.90;99.90
7496;DHT22;3789;47.064;15.482;2024-02-23T02:47:50;7.90;99.90
7496;DHT22;3789;47.064;15.482;2024-02-23T02:50:18;7.90;99.90
7496;DHT22;3789;47.064;15.482;2024-02-23T02:52:50;7.90;99.90
7496;DHT22;3789;47.064;15.482;2024-02-23T02:55:18;7.90;99.90
7496;DHT22;3789;47.064;15.482;2024-02-23T02:57:47;8.00;99.90
7496;DHT22;3789;47.064;15.482;2024-02-23T03:00:16;7.90;99.90
7496;DHT22;3789;47.064;15.482;2024-02-23T03:02:48;8.10;99.90
7496;DHT22;3789;47.064;15.482;2024-02-23T03:05:16;8.00;99.90
7496;DHT22;3789;47.064;15.482;2024-02-23T03:07:44;8.10;99.90
7496;DHT22;3789;47.064;15.482;2024-02-23T03:10:13;8.00;99.90
7496;DHT22;3789;47.064;15.482;2024-02-23T03:12:44;7.90;99.90
7496;DHT22;3789;47.064;15.482;2024-02-23T03:15:13;7.90;99.90
7496;DHT22;3789;47.064;15.482;2024-02-23T03:17:46;7.90;99.90
7496;DHT22;3789;47.064;15.482;2024-02-23T03:20:17;7.90;99.90
7496;DHT22;3789;47.064;15.482;2024-02-23T03:22:47;7.90;99.90
7496;DHT22;3789;47.064;15.482;2024-02-23T03:25:24;8.00;99.90
7496;DHT22;3789;47.064;15.482;2024-02-23T03:27:52;7.90;99.90
7496;DHT22;3789;47.064;15.482;2024-02-23T03:30:21;7.90;99.90
7496;DHT22;3789;47.064;15.482;2024-02-23T03:32:49;8.00;99.90
7496;DHT22;3789;47.064;15.482;2024-02-23T03:35:20;8.00;99.90
7496;DHT22;3789;47.064;15.482;2024-02-23T03:37:57;8.00;99.90
7496;DHT22;3789;47.064;15.482;2024-02-23T03:40:27;7.90;99.90
7496;DHT22;3789;47.064;15.482;2024-02-23T03:43:06;8.00;99.90
7496;DHT22;3789;47.064;15.482;2024-02-23T03:45:34;7.90;99.90
7496;DHT22;3789;47.064;15.482;2024-02-23T03:48:05;7.80;99.90
7496;DHT22;3789;47.064;15.482;2024-02-23T03:50:34;7.80;99.90
7496;DHT22;3789;47.064;15.482;2024-02-23T03:53:03;7.80;99.90
7496;DHT22;3789;47.064;15.482;2024-02-23T03:55:35;7.80;99.90
7496;DHT22;3789;47.064;15.482;2024-02-23T03:58:04;7.80;99.90
7496;DHT22;3789;47.064;15.482;2024-02-23T04:00:33;7.80;99.90
7496;DHT22;3789;47.064;15.482;2024-02-23T04:03:01;7.80;99.90
7496;DHT22;3789;47.064;15.482;2024-02-23T04:05:33;7.70;99.90
7496;DHT22;3789;47.064;15.482;2024-02-23T04:08:04;7.70;99.90
7496;DHT22;3789;47.064;15.482;2024-02-23T04:10:34;7.70;99.90
7496;DHT22;3789;47.064;15.482;2024-02-23T04:13:01;7.70;99.90
7496;DHT22;3789;47.064;15.482;2024-02-23T04:15:32;7.70;99.90
7496;DHT22;3789;47.064;15.482;2024-02-23T04:17:59;7.70;99.90
7496;DHT22;3789;47.064;15.482;2024-02-23T04:20:41;7.80;99.90
7496;DHT22;3789;47.064;15.482;2024-02-23T04:23:13;7.80;99.90
7496;DHT22;3789;47.064;15.482;2024-02-23T04:25:42;7.80;99.90
7496;DHT22;3789;47.064;15.482;2024-02-23T04:28:14;7.80;99.90
7496;DHT22;3789;47.064;15.482;2024-02-23T04:30:45;7.70;99.90
7496;DHT22;3789;47.064;15.482;2024-02-23T04:33:13;7.70;99.90
7496;DHT22;3789;47.064;15.482;2024-02-23T04:35:41;7.70;99.90
7496;DHT22;3789;47.064;15.482;2024-02-23T04:38:20;7.70;99.90
7496;DHT22;3789;47.064;15.482;2024-02-23T04:40:49;7.70;99.90
7496;DHT22;3789;47.064;15.482;2024-02-23T04:43:16;7.70;99.90
7496;DHT22;3789;47.064;15.482;2024-02-23T04:45:47;7.60;99.90
7496;DHT22;3789;47.064;15.482;2024-02-23T04:48:16;7.70;99.90
7496;DHT22;3789;47.064;15.482;2024-02-23T04:50:45;8.00;99.90
7496;DHT22;3789;47.064;15.482;2024-02-23T04:53:15;8.10;99.90
7496;DHT22;3789;47.064;15.482;2024-02-23T04:55:50;8.00;99.90
7496;DHT22;3789;47.064;15.482;2024-02-23T04:58:22;7.80;99.90
7496;DHT22;3789;47.064;15.482;2024-02-23T05:00:52;7.70;99.90
7496;DHT22;3789;47.064;15.482;2024-02-23T05:03:26;7.60;99.90
7496;DHT22;3789;47.064;15.482;2024-02-23T05:05:55;7.70;99.90
7496;DHT22;3789;47.064;15.482;2024-02-23T05:08:25;8.00;99.90
7496;DHT22;3789;47.064;15.482;2024-02-23T05:10:55;7.80;99.90
7496;DHT22;3789;47.064;15.482;2024-02-23T05:13:24;7.90;99.90
7496;DHT22;3789;47.064;15.482;2024-02-23T05:15:56;8.10;99.90
7496;DHT22;3789;47.064;15.482;2024-02-23T05:18:27;8.10;99.90
7496;DHT22;3789;47.064;15.482;2024-02-23T05:20:57;8.10;99.90
7496;DHT22;3789;47.064;15.482;2024-02-23T05:23:26;8.00;99.90
7496;DHT22;3789;47.064;15.482;2024-02-23T05:26:01;8.00;99.90
7496;DHT22;3789;47.064;15.482;2024-02-23T05:28:37;8.20;99.90
7496;DHT22;3789;47.064;15.482;2024-02-23T05:31:06;8.10;99.90
7496;DHT22;3789;47.064;15.482;2024-02-23T05:33:40;8.10;99.90
7496;DHT22;3789;47.064;15.482;2024-02-23T05:36:18;8.00;99.90
7496;DHT22;3789;47.064;15.482;2024-02-23T05:38:49;8.10;99.90
7496;DHT22;3789;47.064;15.482;2024-02-23T05:41:26;8.10;99.90
7496;DHT22;3789;47.064;15.482;2024-02-23T05:43:55;8.00;99.90
7496;DHT22;3789;47.064;15.482;2024-02-23T05:46:26;8.00;99.90
7496;DHT22;3789;47.064;15.482;2024-02-23T05:48:57;8.00;99.90
7496;DHT22;3789;47.064;15.482;2024-02-23T05:51:24;8.10;99.90
7496;DHT22;3789;47.064;15.482;2024-02-23T05:53:53;8.10;99.90
7496;DHT22;3789;47.064;15.482;2024-02-23T05:56:21;7.90;99.90
7496;DHT22;3789;47.064;15.482;2024-02-23T05:58:59;7.60;99.90
7496;DHT22;3789;47.064;15.482;2024-02-23T06:01:26;7.70;99.90
7496;DHT22;3789;47.064;15.482;2024-02-23T06:03:58;7.70;99.90
7496;DHT22;3789;47.064;15.482;2024-02-23T06:06:29;7.90;99.90
7496;DHT22;3789;47.064;15.482;2024-02-23T06:08:58;7.70;99.90
7496;DHT22;3789;47.064;15.482;2024-02-23T06:11:28;7.70;99.90
7496;DHT22;3789;47.064;15.482;2024-02-23T06:13:58;7.70;99.90
7496;DHT22;3789;47.064;15.482;2024-02-23T06:16:27;7.70;99.90
7496;DHT22;3789;47.064;15.482;2024-02-23T06:18:56;7.40;99.90
7496;DHT22;3789;47.064;15.482;2024-02-23T06:21:26;7.40;99.90
7496;DHT22;3789;47.064;15.482;2024-02-23T06:23:58;7.50;99.90
7496;DHT22;3789;47.064;15.482;2024-02-23T06:26:27;7.40;99.90
7496;DHT22;3789;47.064;15.482;2024-02-23T06:29:04;7.30;99.90
7496;DHT22;3789;47.064;15.482;2024-02-23T06:31:32;7.30;99.90
7496;DHT22;3789;47.064;15.482;2024-02-23T06:34:05;7.40;99.90
7496;DHT22;3789;47.064;15.482;2024-02-23T06:36:34;7.40;99.90
7496;DHT22;3789;47.064;15.482;2024-02-23T06:39:03;7.40;99.90
7496;DHT22;3789;47.064;15.482;2024-02-23T06:41:34;7.50;99.90
7496;DHT22;3789;47.064;15.482;2024-02-23T06:44:04;7.60;99.90
7496;DHT22;3789;47.064;15.482;2024-02-23T06:46:34;7.70;99.90
7496;DHT22;3789;47.064;15.482;2024-02-23T06:49:05;7.70;99.90
7496;DHT22;3789;47.064;15.482;2024-02-23T06:51:39;7.50;99.90
7496;DHT22;3789;47.064;15.482;2024-02-23T06:54:19;7.60;99.90
7496;DHT22;3789;47.064;15.482;2024-02-23T06:56:48;7.70;99.90
7496;DHT22;3789;47.064;15.482;2024-02-23T06:59:18;7.70;99.90
7496;DHT22;3789;47.064;15.482;2024-02-23T07:01:51;7.70;99.90
7496;DHT22;3789;47.064;15.482;2024-02-23T07:04:24;7.70;99.90
7496;DHT22;3789;47.064;15.482;2024-02-23T07:06:53;7.70;99.90
7496;DHT22;3789;47.064;15.482;2024-02-23T07:09:22;7.80;99.90
7496;DHT22;3789;47.064;15.482;2024-02-23T07:11:53;7.70;99.90
7496;DHT22;3789;47.064;15.482;2024-02-23T07:14:30;7.80;99.90
7496;DHT22;3789;47.064;15.482;2024-02-23T07:16:59;7.80;99.90
7496;DHT22;3789;47.064;15.482;2024-02-23T07:19:28;7.80;99.90
7496;DHT22;3789;47.064;15.482;2024-02-23T07:21:58;7.80;99.90
7496;DHT22;3789;47.064;15.482;2024-02-23T07:24:27;7.90;99.90
7496;DHT22;3789;47.064;15.482;2024-02-23T07:26:56;7.80;99.90
7496;DHT22;3789;47.064;15.482;2024-02-23T07:29:26;7.90;99.90
7496;DHT22;3789;47.064;15.482;2024-02-23T07:32:03;7.90;99.90
7496;DHT22;3789;47.064;15.482;2024-02-23T07:34:31;7.90;99.90
7496;DHT22;3789;47.064;15.482;2024-02-23T07:37:01;8.00;99.90
7496;DHT22;3789;47.064;15.482;2024-02-23T07:39:40;8.00;99.90
7496;DHT22;3789;47.064;15.482;2024-02-23T07:42:18;8.10;99.90
7496;DHT22;3789;47.064;15.482;2024-02-23T07:44:55;8.10;99.90
7496;DHT22;3789;47.064;15.482;2024-02-23T07:47:26;8.20;99.90
7496;DHT22;3789;47.064;15.482;2024-02-23T07:49:58;8.20;99.90
7496;DHT22;3789;47.064;15.482;2024-02-23T07:52:28;8.20;99.90
7496;DHT22;3789;47.064;15.482;2024-02-23T07:54:58;8.30;99.90
7496;DHT22;3789;47.064;15.482;2024-02-23T07:57:30;8.30;99.90
7496;DHT22;3789;47.064;15.482;2024-02-23T08:00:03;8.20;99.90
7496;DHT22;3789;47.064;15.482;2024-02-23T08:02:32;8.20;99.90
7496;DHT22;3789;47.064;15.482;2024-02-23T08:05:02;8.10;99.90
7496;DHT22;3789;47.064;15.482;2024-02-23T08:07:35;8.20;99.90
7496;DHT22;3789;47.064;15.482;2024-02-23T08:10:04;8.20;99.90
7496;DHT22;3789;47.064;15.482;2024-02-23T08:12:34;8.10;99.90
7496;DHT22;3789;47.064;15.482;2024-02-23T08:15:11;8.20;99.90
7496;DHT22;3789;47.064;15.482;2024-02-23T08:17:39;8.20;99.90
7496;DHT22;3789;47.064;15.482;2024-02-23T08:20:08;8.20;99.90
7496;DHT22;3789;47.064;15.482;2024-02-23T08:22:39;8.20;99.90
7496;DHT22;3789;47.064;15.482;2024-02-23T08:25:07;8.30;99.90
7496;DHT22;3789;47.064;15.482;2024-02-23T08:27:44;8.30;99.90
7496;DHT22;3789;47.064;15.482;2024-02-23T08:30:23;8.30;99.90
7496;DHT22;3789;47.064;15.482;2024-02-23T08:32:51;8.30;99.90
7496;DHT22;3789;47.064;15.482;2024-02-23T08:35:23;8.20;99.90
7496;DHT22;3789;47.064;15.482;2024-02-23T08:37:51;8.10;99.90
7496;DHT22;3789;47.064;15.482;2024-02-23T08:40:21;8.10;99.90
7496;DHT22;3789;47.064;15.482;2024-02-23T08:42:50;8.10;99.90
7496;DHT22;3789;47.064;15.482;2024-02-23T08:45:19;8.00;99.90
7496;DHT22;3789;47.064;15.482;2024-02-23T08:47:46;7.90;99.90
7496;DHT22;3789;47.064;15.482;2024-02-23T08:50:16;7.90;99.90
7496;DHT22;3789;47.064;15.482;2024-02-23T08:52:45;7.80;99.90
7496;DHT22;3789;47.064;15.482;2024-02-23T08:55:13;7.70;99.90
7496;DHT22;3789;47.064;15.482;2024-02-23T08:57:45;7.70;99.90
7496;DHT22;3789;47.064;15.482;2024-02-23T09:00:14;7.60;99.90
7496;DHT22;3789;47.064;15.482;2024-02-23T09:02:48;7.60;99.90
7496;DHT22;3789;47.064;15.482;2024-02-23T09:05:19;7.60;99.90
7496;DHT22;3789;47.064;15.482;2024-02-23T09:07:50;7.60;99.90
7496;DHT22;3789;47.064;15.482;2024-02-23T09:10:19;7.70;99.90
7496;DHT22;3789;47.064;15.482;2024-02-23T09:12:55;7.70;99.90
7496;DHT22;3789;47.064;15.482;2024-02-23T09:15:24;7.70;99.90
7496;DHT22;3789;47.064;15.482;2024-02-23T09:18:00;7.70;99.90
7496;DHT22;3789;47.064;15.482;2024-02-23T09:20:29;7.70;99.90
7496;DHT22;3789;47.064;15.482;2024-02-23T09:23:00;7.70;99.90
7496;DHT22;3789;47.064;15.482;2024-02-23T09:25:32;7.70;99.90
7496;DHT22;3789;47.064;15.482;2024-02-23T09:28:00;7.60;99.90
7496;DHT22;3789;47.064;15.482;2024-02-23T09:30:30;7.60;99.90
7496;DHT22;3789;47.064;15.482;2024-02-23T09:32:59;7.70;99.90
7496;DHT22;3789;47.064;15.482;2024-02-23T09:35:28;7.70;99.90
7496;DHT22;3789;47.064;15.482;2024-02-23T09:38:03;7.80;99.90
7496;DHT22;3789;47.064;15.482;2024-02-23T09:40:34;7.80;99.90
7496;DHT22;3789;47.064;15.482;2024-02-23T09:43:07;7.90;99.90
7496;DHT22;3789;47.064;15.482;2024-02-23T09:45:41;7.90;99.90
7496;DHT22;3789;47.064;15.482;2024-02-23T09:48:10;7.90;99.90
7496;DHT22;3789;47.064;15.482;2024-02-23T09:50:42;7.80;99.90
7496;DHT22;3789;47.064;15.482;2024-02-23T09:53:11;7.70;99.90
7496;DHT22;3789;47.064;15.482;2024-02-23T09:55:47;7.80;99.90
7496;DHT22;3789;47.064;15.482;2024-02-23T09:58:21;7.70;99.90
7496;DHT22;3789;47.064;15.482;2024-02-23T10:00:50;7.70;99.90
7496;DHT22;3789;47.064;15.482;2024-02-23T10:03:18;7.70;99.90
7496;DHT22;3789;47.064;15.482;2024-02-23T10:05:49;7.70;99.90
7496;DHT22;3789;47.064;15.482;2024-02-23T10:08:20;7.70;99.90
7496;DHT22;3789;47.064;15.482;2024-02-23T10:10:48;7.60;99.90
7496;DHT22;3789;47.064;15.482;2024-02-23T10:13:20;7.60;99.90
7496;DHT22;3789;47.064;15.482;2024-02-23T10:15:53;7.50;99.90
7496;DHT22;3789;47.064;15.482;2024-02-23T10:18:41;7.50;99.90
7496;DHT22;3789;47.064;15.482;2024-02-23T10:21:11;7.50;99.90
7496;DHT22;3789;47.064;15.482;2024-02-23T10:23:44;7.50;99.90
7496;DHT22;3789;47.064;15.482;2024-02-23T10:26:15;7.50;99.90
7496;DHT22;3789;47.064;15.482;2024-02-23T10:28:51;7.50;99.90
7496;DHT22;3789;47.064;15.482;2024-02-23T10:31:35;7.40;99.90
7496;DHT22;3789;47.064;15.482;2024-02-23T10:34:09;7.40;99.90
7496;DHT22;3789;47.064;15.482;2024-02-23T10:36:42;7.50;99.90
7496;DHT22;3789;47.064;15.482;2024-02-23T10:39:19;7.50;99.90
7496;DHT22;3789;47.064;15.482;2024-02-23T10:42:05;7.50;99.90
7496;DHT22;3789;47.064;15.482;2024-02-23T10:44:39;7.60;99.90
7496;DHT22;3789;47.064;15.482;2024-02-23T10:47:15;7.50;99.90
7496;DHT22;3789;47.064;15.482;2024-02-23T10:49:46;7.50;99.90
7496;DHT22;3789;47.064;15.482;2024-02-23T10:52:20;7.50;99.90
7496;DHT22;3789;47.064;15.482;2024-02-23T10:54:53;7.50;99.90
7496;DHT22;3789;47.064;15.482;2024-02-23T10:57:23;7.50;99.90
7496;DHT22;3789;47.064;15.482;2024-02-23T10:59:53;7.40;99.90
7496;DHT22;3789;47.064;15.482;2024-02-23T11:02:27;7.40;99.90
7496;DHT22;3789;47.064;15.482;2024-02-23T11:04:59;7.40;99.90
7496;DHT22;3789;47.064;15.482;2024-02-23T11:07:30;7.50;99.90
7496;DHT22;3789;47.064;15.482;2024-02-23T11:10:04;7.50;99.90
7496;DHT22;3789;47.064;15.482;2024-02-23T11:12:33;7.50;99.90
7496;DHT22;3789;47.064;15.482;2024-02-23T11:15:08;7.60;99.90
7496;DHT22;3789;47.064;15.482;2024-02-23T11:17:37;7.70;99.90
7496;DHT22;3789;47.064;15.482;2024-02-23T11:20:06;7.70;99.90
7496;DHT22;3789;47.064;15.482;2024-02-23T11:22:38;7.80;99.90
7496;DHT22;3789;47.064;15.482;2024-02-23T11:25:17;7.80;99.90
7496;DHT22;3789;47.064;15.482;2024-02-23T11:27:51;7.80;99.90
7496;DHT22;3789;47.064;15.482;2024-02-23T11:30:22;7.90;99.90
7496;DHT22;3789;47.064;15.482;2024-02-23T11:32:59;7.90;99.90
7496;DHT22;3789;47.064;15.482;2024-02-23T11:35:28;7.90;99.90
7496;DHT22;3789;47.064;15.482;2024-02-23T11:37:57;8.00;99.90
7496;DHT22;3789;47.064;15.482;2024-02-23T11:40:31;8.00;99.90
7496;DHT22;3789;47.064;15.482;2024-02-23T11:43:02;8.00;99.90
7496;DHT22;3789;47.064;15.482;2024-02-23T11:45:33;8.10;99.90
7496;DHT22;3789;47.064;15.482;2024-02-23T11:48:01;8.10;99.90
7496;DHT22;3789;47.064;15.482;2024-02-23T11:50:32;8.10;99.90
7496;DHT22;3789;47.064;15.482;2024-02-23T11:53:22;8.20;99.90
7496;DHT22;3789;47.064;15.482;2024-02-23T11:56:09;8.20;99.90
7496;DHT22;3789;47.064;15.482;2024-02-23T11:58:40;8.30;99.90
7496;DHT22;3789;47.064;15.482;2024-02-23T12:01:09;8.20;99.90
7496;DHT22;3789;47.064;15.482;2024-02-23T12:03:37;8.30;99.90
7496;DHT22;3789;47.064;15.482;2024-02-23T12:06:09;8.30;99.90
7496;DHT22;3789;47.064;15.482;2024-02-23T12:08:37;8.30;99.90
7496;DHT22;3789;47.064;15.482;2024-02-23T12:11:08;8.30;99.90
7496;DHT22;3789;47.064;15.482;2024-02-23T12:13:37;8.20;99.90
7496;DHT22;3789;47.064;15.482;2024-02-23T12:16:07;8.20;99.90
7496;DHT22;3789;47.064;15.482;2024-02-23T12:18:37;8.20;99.90
7496;DHT22;3789;47.064;15.482;2024-02-23T12:21:12;8.20;99.90
7496;DHT22;3789;47.064;15.482;2024-02-23T12:26:16;8.30;99.90
7496;DHT22;3789;47.064;15.482;2024-02-23T12:28:52;8.30;99.90
7496;DHT22;3789;47.064;15.482;2024-02-23T12:31:32;8.30;99.90
7496;DHT22;3789;47.064;15.482;2024-02-23T12:34:04;8.20;99.90
7496;DHT22;3789;47.064;15.482;2024-02-23T12:36:39;8.40;99.90
7496;DHT22;3789;47.064;15.482;2024-02-23T12:39:09;8.30;99.90
7496;DHT22;3789;47.064;15.482;2024-02-23T12:41:46;8.30;99.90
7496;DHT22;3789;47.064;15.482;2024-02-23T12:44:21;8.40;99.90
7496;DHT22;3789;47.064;15.482;2024-02-23T12:46:52;8.40;99.90
7496;DHT22;3789;47.064;15.482;2024-02-23T12:49:22;8.40;99.90
7496;DHT22;3789;47.064;15.482;2024-02-23T12:51:49;8.50;99.90
7496;DHT22;3789;47.064;15.482;2024-02-23T12:54:21;8.40;99.90
7496;DHT22;3789;47.064;15.482;2024-02-23T12:56:59;8.40;99.90
7496;DHT22;3789;47.064;15.482;2024-02-23T12:59:27;8.40;99.90
7496;DHT22;3789;47.064;15.482;2024-02-23T13:01:55;8.40;99.90
7496;DHT22;3789;47.064;15.482;2024-02-23T13:04:33;8.40;99.90
7496;DHT22;3789;47.064;15.482;2024-02-23T13:07:03;8.40;99.90
7496;DHT22;3789;47.064;15.482;2024-02-23T13:09:31;8.40;99.90
7496;DHT22;3789;47.064;15.482;2024-02-23T13:12:02;8.40;99.90
7496;DHT22;3789;47.064;15.482;2024-02-23T13:14:30;8.50;99.90
7496;DHT22;3789;47.064;15.482;2024-02-23T13:17:00;8.40;99.90
7496;DHT22;3789;47.064;15.482;2024-02-23T13:19:28;8.40;99.90
7496;DHT22;3789;47.064;15.482;2024-02-23T13:21:57;8.40;99.90
7496;DHT22;3789;47.064;15.482;2024-02-23T13:24:31;8.40;99.90
7496;DHT22;3789;47.064;15.482;2024-02-23T13:27:00;8.40;99.90
7496;DHT22;3789;47.064;15.482;2024-02-23T13:29:31;8.30;99.90
7496;DHT22;3789;47.064;15.482;2024-02-23T13:32:02;8.20;99.90
7496;DHT22;3789;47.064;15.482;2024-02-23T13:34:31;8.30;99.90
7496;DHT22;3789;47.064;15.482;2024-02-23T13:37:06;8.20;99.90
7496;DHT22;3789;47.064;15.482;2024-02-23T13:39:36;8.20;99.90
7496;DHT22;3789;47.064;15.482;2024-02-23T13:42:15;8.20;99.90
7496;DHT22;3789;47.064;15.482;2024-02-23T13:44:51;8.30;99.90
7496;DHT22;3789;47.064;15.482;2024-02-23T13:47:22;8.40;99.90
7496;DHT22;3789;47.064;15.482;2024-02-23T13:49:50;8.50;99.90
7496;DHT22;3789;47.064;15.482;2024-02-23T13:52:19;8.40;99.90
7496;DHT22;3789;47.064;15.482;2024-02-23T13:54:49;8.40;99.90
7496;DHT22;3789;47.064;15.482;2024-02-23T13:57:18;8.40;99.90
7496;DHT22;3789;47.064;15.482;2024-02-23T13:59:47;8.50;99.90
7496;DHT22;3789;47.064;15.482;2024-02-23T14:02:26;8.50;99.90
7496;DHT22;3789;47.064;15.482;2024-02-23T14:05:02;8.50;99.90
7496;DHT22;3789;47.064;15.482;2024-02-23T14:07:34;8.60;99.90
7496;DHT22;3789;47.064;15.482;2024-02-23T14:10:11;8.60;99.90
7496;DHT22;3789;47.064;15.482;2024-02-23T14:12:49;8.60;99.90
7496;DHT22;3789;47.064;15.482;2024-02-23T14:15:19;8.60;99.90
7496;DHT22;3789;47.064;15.482;2024-02-23T14:17:57;8.60;99.90
7496;DHT22;3789;47.064;15.482;2024-02-23T14:20:28;8.60;99.90
7496;DHT22;3789;47.064;15.482;2024-02-23T14:22:57;8.60;99.90
7496;DHT22;3789;47.064;15.482;2024-02-23T14:25:30;8.60;99.90
7496;DHT22;3789;47.064;15.482;2024-02-23T14:27:58;8.60;99.90
7496;DHT22;3789;47.064;15.482;2024-02-23T14:30:29;8.60;99.90
7496;DHT22;3789;47.064;15.482;2024-02-23T14:33:01;8.60;99.90
7496;DHT22;3789;47.064;15.482;2024-02-23T14:35:33;8.60;99.90
7496;DHT22;3789;47.064;15.482;2024-02-23T14:38:02;8.60;99.90
7496;DHT22;3789;47.064;15.482;2024-02-23T14:40:41;8.60;99.90
7496;DHT22;3789;47.064;15.482;2024-02-23T14:43:21;8.50;99.90
7496;DHT22;3789;47.064;15.482;2024-02-23T14:45:49;8.50;99.90
7496;DHT22;3789;47.064;15.482;2024-02-23T14:48:27;8.50;99.90
7496;DHT22;3789;47.064;15.482;2024-02-23T14:50:55;8.40;99.90
7496;DHT22;3789;47.064;15.482;2024-02-23T14:53:27;8.40;99.90
7496;DHT22;3789;47.064;15.482;2024-02-23T14:55:55;8.40;99.90
7496;DHT22;3789;47.064;15.482;2024-02-23T14:58:24;8.40;99.90
7496;DHT22;3789;47.064;15.482;2024-02-23T15:00:55;8.30;99.90
7496;DHT22;3789;47.064;15.482;2024-02-23T15:03:45;8.30;99.90
7496;DHT22;3789;47.064;15.482;2024-02-23T15:06:18;8.20;99.90
7496;DHT22;3789;47.064;15.482;2024-02-23T15:09:06;8.20;99.90
7496;DHT22;3789;47.064;15.482;2024-02-23T15:11:38;8.20;99.90
7496;DHT22;3789;47.064;15.482;2024-02-23T15:14:12;8.10;99.90
7496;DHT22;3789;47.064;15.482;2024-02-23T15:16:46;8.00;99.90
7496;DHT22;3789;47.064;15.482;2024-02-23T15:19:18;8.00;99.90
7496;DHT22;3789;47.064;15.482;2024-02-23T15:21:47;8.00;99.90
7496;DHT22;3789;47.064;15.482;2024-02-23T15:24:18;8.00;99.90
7496;DHT22;3789;47.064;15.482;2024-02-23T15:26:48;8.00;99.90
7496;DHT22;3789;47.064;15.482;2024-02-23T15:29:17;8.00;99.90
7496;DHT22;3789;47.064;15.482;2024-02-23T15:31:50;7.90;99.90
7496;DHT22;3789;47.064;15.482;2024-02-23T15:34:17;8.00;99.90
7496;DHT22;3789;47.064;15.482;2024-02-23T15:36:47;8.00;99.90
7496;DHT22;3789;47.064;15.482;2024-02-23T15:39:18;8.00;99.90
7496;DHT22;3789;47.064;15.482;2024-02-23T15:41:51;8.00;99.90
7496;DHT22;3789;47.064;15.482;2024-02-23T15:44:23;7.90;99.90
7496;DHT22;3789;47.064;15.482;2024-02-23T15:46:57;7.90;99.90
7496;DHT22;3789;47.064;15.482;2024-02-23T15:49:33;7.80;99.90
7496;DHT22;3789;47.064;15.482;2024-02-23T15:52:21;7.80;99.90
7496;DHT22;3789;47.064;15.482;2024-02-23T15:54:52;7.80;99.90
7496;DHT22;3789;47.064;15.482;2024-02-23T15:57:23;7.90;99.90
7496;DHT22;3789;47.064;15.482;2024-02-23T15:59:52;7.80;99.90
7496;DHT22;3789;47.064;15.482;2024-02-23T16:02:30;7.80;99.90
7496;DHT22;3789;47.064;15.482;2024-02-23T16:05:06;7.70;99.90
7496;DHT22;3789;47.064;15.482;2024-02-23T16:07:37;7.70;99.90
7496;DHT22;3789;47.064;15.482;2024-02-23T16:10:05;7.70;99.90
7496;DHT22;3789;47.064;15.482;2024-02-23T16:12:33;7.70;99.90
7496;DHT22;3789;47.064;15.482;2024-02-23T16:15:05;7.60;99.90
7496;DHT22;3789;47.064;15.482;2024-02-23T16:17:35;7.60;99.90
7496;DHT22;3789;47.064;15.482;2024-02-23T16:20:05;7.60;99.90
7496;DHT22;3789;47.064;15.482;2024-02-23T16:22:36;7.60;99.90
7496;DHT22;3789;47.064;15.482;2024-02-23T16:25:04;7.50;99.90
7496;DHT22;3789;47.064;15.482;2024-02-23T16:27:35;7.60;99.90
7496;DHT22;3789;47.064;15.482;2024-02-23T16:30:10;7.50;99.90
7496;DHT22;3789;47.064;15.482;2024-02-23T16:32:39;7.50;99.90
7496;DHT22;3789;47.064;15.482;2024-02-23T16:35:10;7.50;99.90
7496;DHT22;3789;47.064;15.482;2024-02-23T16:37:56;7.60;99.90